Nanoose Bay, British Columbia

Past 24 Hour Conditions

This table is a summary of hourly weather conditions for the past 24 hours. This summary includes the following parameters: temperature, humidity, dew point, wind speed and direction, air pressure, visibility and/or wind chill and humidex.
Date / Time
(PDT)
Conditions Temp (°F) Humidity (%) Dew Point (°F) Wind (mph) Pressure (inches) Visibility (miles)
01 October 2014
7:00 N/A 52   75 44 WNW 7 N/A N/A
6:00 N/A 52   74 44 NNW 3 N/A N/A
5:00 N/A 53 75 45 WNW 6 N/A N/A
4:00 N/A 53 76 46 WNW 6 N/A N/A
3:00 N/A 54 70 45 NW 4 N/A N/A
2:00 N/A 54 73 45 WNW 8 N/A N/A
1:00 N/A 54 77 47 WNW 8 N/A N/A
00:00 N/A 55 75 47 WNW 7 N/A N/A
30 September 2014
23:00 N/A 57 69 47 WNW 6 N/A N/A
22:00 N/A 55 74 47 NNW 4 N/A N/A
21:00 N/A 56 73 48 W 8 N/A N/A
20:00 N/A 58 68 48 WNW 11 N/A N/A
19:00 N/A 58 70 48 WNW 10 N/A N/A
18:00 N/A 60 61 46 WNW 11 N/A N/A
17:00 N/A 61 55 45 WNW 12 N/A N/A
16:00 N/A 62   54 45 W 11 N/A N/A
15:00 N/A 60 57 45 NW 14 N/A N/A
14:00 N/A 61 60 47 WNW 14 N/A N/A
13:00 N/A 60 61 47 WNW 7 N/A N/A
12:00 N/A 59 63 46 WNW 11 N/A N/A
11:00 N/A 58 65 47 WNW 12 N/A N/A
10:00 N/A 58 67 47 WNW 9 N/A N/A
9:00 N/A 53 78 46 W 5 N/A N/A
8:00 N/A 54 72 45 NW 5 N/A N/A
7:00 N/A 53 77 45 NW 6 N/A N/A
N/A
Not available
 ↑ 
Highest temperature
 ↓ 
Lowest temperature

If you require additional historical weather information, please visit Climate Data Online.